Eot Spar — WDE9193 — position and weather

sailwx.info

Track history (hours):
 
Tides and Currents Weather Stations Pressure Air Temp Water Temp Dewpoint Dewpoint Depression Visibility Wind Speed Wind Dir Waves Ship Positions

Eot Spar

More information available from US FCC via Universal Licensing System and Coast Guard Vessel Documentation Center.

Last reported at 2014-Sep-02 18:00 UTC. Time now 2014-Sep-03 02:33 UTC.
Position N 33°30' W 047°12'.

Length 92 m; draft 4.4 m.

Type: Cargo ship. MMSI: 338589000.

Wind from 060 at 5 knots

Waves 0.5 meters (2 feet), 1 second period

Barometer 1018.7 mb
Air temperature 25.5 ° C
Visibility: greater than 10.8 NM
Dewpoint 22.0 ° C
Water temperature -28.0 ° C

Date/timePositionNaut miles runAvg speedWind from/ knotsBaromVisibWave heightAir tempDewpointWater temp
2014-Sep-02 18:00N 33°30' W 047°12'7212.0 060 / 51018.710.8 0.525.522.0-28.0
2014-Sep-02 12:00N 33°48' W 045°48'28311.8 070 / 91020.4 1.029.524.0-25.6
2014-Sep-01 12:00N 35°06' W 040°18'19010.6 350 / 91021.0 1.025.021.4-25.8
2014-Aug-31 18:00N 36°06' W 036°36'28810.0 310 / 91019.010.8 1.026.023.2-27.2
2014-Aug-30 13:14N 37°31' W 030°53'6 9.1
2014-Aug-30 12:34N 37°33' W 030°45'10 9.7
2014-Aug-30 11:33N 37°36' W 030°34'10 9.6
2014-Aug-30 10:33N 37°39' W 030°22'10 9.6
2014-Aug-30 09:32N 37°42' W 030°10'9 9.7
2014-Aug-30 08:33N 37°45' W 029°59'1010.1
2014-Aug-30 07:33N 37°48' W 029°47'1010.1
2014-Aug-30 06:33N 37°51' W 029°34'10 9.8
2014-Aug-30 05:33N 37°53' W 029°22'1010.0
2014-Aug-30 04:33N 37°56' W 029°10'1010.1
2014-Aug-30 03:33N 38°01' W 028°59'1010.4
2014-Aug-30 02:33N 38°04' W 028°46'1010.2
2014-Aug-30 01:33N 38°08' W 028°34'1010.2
2014-Aug-30 00:34N 38°11' W 028°22'1110.9
2014-Aug-29 23:33N 38°15' W 028°09'1110.7
2014-Aug-29 22:33N 38°19' W 027°56'1111.2
2014-Aug-29 21:33N 38°23' W 027°43'1010.2
2014-Aug-29 20:33N 38°27' W 027°31'10 9.5
2014-Aug-29 19:33N 38°30' W 027°19'1010.0
2014-Aug-29 18:33N 38°34' W 027°07'10 9.6
2014-Aug-29 17:33N 38°42' W 027°00'3 2.6
2014-Aug-29 16:31N 38°43' W 027°03'0 0.0
2014-Aug-29 15:31N 38°43' W 027°03'0 0.0
2014-Aug-29 14:31N 38°43' W 027°03'0 0.0
2014-Aug-29 13:31N 38°43' W 027°03'0 0.0
2014-Aug-29 12:31N 38°43' W 027°03'0 0.0
2014-Aug-29 11:31N 38°43' W 027°03'0 0.0
2014-Aug-29 10:31N 38°43' W 027°03'0 0.0
2014-Aug-29 09:28N 38°43' W 027°03'0 0.0
2014-Aug-29 08:31N 38°43' W 027°03'2 2.4
2014-Aug-29 07:33N 38°43' W 027°00'3 2.5
2014-Aug-29 06:33N 38°43' W 026°57'2 1.9
2014-Aug-29 05:29N 38°44' W 026°55'2 1.7
2014-Aug-29 04:21N 38°46' W 026°55'1 1.4
2014-Aug-29 03:24N 38°47' W 026°56'0 0.0
2014-Aug-29 02:33N 38°47' W 026°56'4 3.5
2014-Aug-29 01:26N 38°43' W 026°55'2 2.1
2014-Aug-29 00:33N 38°45' W 026°55'2 2.0
2014-Aug-28 23:34N 38°46' W 026°57'1 0.3
2014-Aug-28 21:32N 38°47' W 026°57'2 1.9
2014-Aug-28 20:33N 38°45' W 026°56'2 2.2
2014-Aug-28 19:33N 38°43' W 026°55'2 2.5
2014-Aug-28 18:33N 38°45' W 026°55'2 2.3
2014-Aug-28 17:33N 38°47' W 026°57'2 2.2
2014-Aug-28 16:33N 38°45' W 026°59'5 4.8
2014-Aug-28 15:32N 38°40' W 026°57'9 9.2
2014-Aug-28 14:33N 38°34' W 026°49'1110.6
2014-Aug-28 13:33N 38°26' W 026°40'1111.2
2014-Aug-28 12:33N 38°17' W 026°31'1933.0
2014-Aug-28 12:00N 38°06' W 026°12'818.5 999 / 21017.8 24.021.125.2
2014-Aug-28 11:33N 38°09' W 026°21'1110.6
2014-Aug-28 10:33N 38°01' W 026°12'1111.0
2014-Aug-28 09:33N 37°53' W 026°03'1110.8
2014-Aug-28 08:33N 37°45' W 025°54'1010.0
2014-Aug-28 07:33N 37°39' W 025°44'1010.1
2014-Aug-28 06:33N 37°32' W 025°34'10 9.7
2014-Aug-28 05:33N 37°26' W 025°25'10 9.9
2014-Aug-28 04:34N 37°19' W 025°16'10 9.8
2014-Aug-28 03:33N 37°13' W 025°07'1110.6
2014-Aug-28 02:33N 37°05' W 024°57'1111.3
2014-Aug-28 01:33N 36°57' W 024°47'1212.2
2014-Aug-28 00:33N 36°48' W 024°37'1212.2
2014-Aug-27 23:34N 36°39' W 024°26'1212.0
2014-Aug-27 22:33N 36°31' W 024°16'1211.7
2014-Aug-27 21:33N 36°22' W 024°06'1211.6
2014-Aug-27 20:30N 36°14' W 023°56'3614.4
2014-Aug-27 18:00N 35°48' W 023°24'26110.9 250 / 91018.510.8 1.025.023.6-25.6
2014-Aug-26 18:00N 32°42' W 019°42'   050 / 91020.310.8 1.024.521.7-24.8
Track history (hours):
 
Tides and Currents Weather Stations Pressure Air Temp Water Temp Dewpoint Dewpoint Depression Visibility Wind Speed Wind Dir Waves Ship Positions

Eot Spar

More information available from US FCC via Universal Licensing System and Coast Guard Vessel Documentation Center.

Last reported at 2014-Sep-02 18:00 UTC. Time now 2014-Sep-03 02:33 UTC.
Position N 33°30' W 047°12'.

Length 92 m; draft 4.4 m.

Type: Cargo ship. MMSI: 338589000.

Wind from 060 at 5 knots

Waves 0.5 meters (2 feet), 1 second period

Barometer 1018.7 mb
Air temperature 25.5 ° C
Visibility: greater than 10.8 NM
Dewpoint 22.0 ° C
Water temperature -28.0 ° C

Date/timePositionNaut miles runAvg speedWind from/ knotsBaromVisibWave heightAir tempDewpointWater temp
2014-Sep-02 18:00N 33°30' W 047°12'7212.0 060 / 51018.710.8 0.525.522.0-28.0
2014-Sep-02 12:00N 33°48' W 045°48'28311.8 070 / 91020.4 1.029.524.0-25.6
2014-Sep-01 12:00N 35°06' W 040°18'19010.6 350 / 91021.0 1.025.021.4-25.8
2014-Aug-31 18:00N 36°06' W 036°36'28810.0 310 / 91019.010.8 1.026.023.2-27.2
2014-Aug-30 13:14N 37°31' W 030°53'6 9.1
2014-Aug-30 12:34N 37°33' W 030°45'10 9.7
2014-Aug-30 11:33N 37°36' W 030°34'10 9.6
2014-Aug-30 10:33N 37°39' W 030°22'10 9.6
2014-Aug-30 09:32N 37°42' W 030°10'9 9.7
2014-Aug-30 08:33N 37°45' W 029°59'1010.1
2014-Aug-30 07:33N 37°48' W 029°47'1010.1
2014-Aug-30 06:33N 37°51' W 029°34'10 9.8
2014-Aug-30 05:33N 37°53' W 029°22'1010.0
2014-Aug-30 04:33N 37°56' W 029°10'1010.1
2014-Aug-30 03:33N 38°01' W 028°59'1010.4
2014-Aug-30 02:33N 38°04' W 028°46'1010.2
2014-Aug-30 01:33N 38°08' W 028°34'1010.2
2014-Aug-30 00:34N 38°11' W 028°22'1110.9
2014-Aug-29 23:33N 38°15' W 028°09'1110.7
2014-Aug-29 22:33N 38°19' W 027°56'1111.2
2014-Aug-29 21:33N 38°23' W 027°43'1010.2
2014-Aug-29 20:33N 38°27' W 027°31'10 9.5
2014-Aug-29 19:33N 38°30' W 027°19'1010.0
2014-Aug-29 18:33N 38°34' W 027°07'10 9.6
2014-Aug-29 17:33N 38°42' W 027°00'3 2.6
2014-Aug-29 16:31N 38°43' W 027°03'0 0.0
2014-Aug-29 15:31N 38°43' W 027°03'0 0.0
2014-Aug-29 14:31N 38°43' W 027°03'0 0.0
2014-Aug-29 13:31N 38°43' W 027°03'0 0.0
2014-Aug-29 12:31N 38°43' W 027°03'0 0.0
2014-Aug-29 11:31N 38°43' W 027°03'0 0.0
2014-Aug-29 10:31N 38°43' W 027°03'0 0.0
2014-Aug-29 09:28N 38°43' W 027°03'0 0.0
2014-Aug-29 08:31N 38°43' W 027°03'2 2.4
2014-Aug-29 07:33N 38°43' W 027°00'3 2.5
2014-Aug-29 06:33N 38°43' W 026°57'2 1.9
2014-Aug-29 05:29N 38°44' W 026°55'2 1.7
2014-Aug-29 04:21N 38°46' W 026°55'1 1.4
2014-Aug-29 03:24N 38°47' W 026°56'0 0.0
2014-Aug-29 02:33N 38°47' W 026°56'4 3.5
2014-Aug-29 01:26N 38°43' W 026°55'2 2.1
2014-Aug-29 00:33N 38°45' W 026°55'2 2.0
2014-Aug-28 23:34N 38°46' W 026°57'1 0.3
2014-Aug-28 21:32N 38°47' W 026°57'2 1.9
2014-Aug-28 20:33N 38°45' W 026°56'2 2.2
2014-Aug-28 19:33N 38°43' W 026°55'2 2.5
2014-Aug-28 18:33N 38°45' W 026°55'2 2.3
2014-Aug-28 17:33N 38°47' W 026°57'2 2.2
2014-Aug-28 16:33N 38°45' W 026°59'5 4.8
2014-Aug-28 15:32N 38°40' W 026°57'9 9.2
2014-Aug-28 14:33N 38°34' W 026°49'1110.6
2014-Aug-28 13:33N 38°26' W 026°40'1111.2
2014-Aug-28 12:33N 38°17' W 026°31'1933.0
2014-Aug-28 12:00N 38°06' W 026°12'818.5 999 / 21017.8 24.021.125.2
2014-Aug-28 11:33N 38°09' W 026°21'1110.6
2014-Aug-28 10:33N 38°01' W 026°12'1111.0
2014-Aug-28 09:33N 37°53' W 026°03'1110.8
2014-Aug-28 08:33N 37°45' W 025°54'1010.0
2014-Aug-28 07:33N 37°39' W 025°44'1010.1
2014-Aug-28 06:33N 37°32' W 025°34'10 9.7
2014-Aug-28 05:33N 37°26' W 025°25'10 9.9
2014-Aug-28 04:34N 37°19' W 025°16'10 9.8
2014-Aug-28 03:33N 37°13' W 025°07'1110.6
2014-Aug-28 02:33N 37°05' W 024°57'1111.3
2014-Aug-28 01:33N 36°57' W 024°47'1212.2
2014-Aug-28 00:33N 36°48' W 024°37'1212.2
2014-Aug-27 23:34N 36°39' W 024°26'1212.0
2014-Aug-27 22:33N 36°31' W 024°16'1211.7
2014-Aug-27 21:33N 36°22' W 024°06'1211.6
2014-Aug-27 20:30N 36°14' W 023°56'3614.4
2014-Aug-27 18:00N 35°48' W 023°24'26110.9 250 / 91018.510.8 1.025.023.6-25.6
2014-Aug-26 18:00N 32°42' W 019°42'   050 / 91020.310.8 1.024.521.7-24.8

Dump ship's entire track history